sensor_id;sensor_type;location;lat;lon;timestamp;temperature;humidity
45137;DHT22;30894;51.740;19.498;2023-02-18T00:00:22;7.10;99.90
45137;DHT22;30894;51.740;19.498;2023-02-18T00:03:08;7.10;99.90
45137;DHT22;30894;51.740;19.498;2023-02-18T00:05:34;7.00;99.90
45137;DHT22;30894;51.740;19.498;2023-02-18T00:08:00;7.00;99.90
45137;DHT22;30894;51.740;19.498;2023-02-18T00:10:26;7.00;99.90
45137;DHT22;30894;51.740;19.498;2023-02-18T00:12:53;7.00;99.90
45137;DHT22;30894;51.740;19.498;2023-02-18T00:15:19;7.00;99.90
45137;DHT22;30894;51.740;19.498;2023-02-18T00:17:45;7.00;99.90
45137;DHT22;30894;51.740;19.498;2023-02-18T00:20:11;6.90;99.90
45137;DHT22;30894;51.740;19.498;2023-02-18T00:22:39;6.90;99.90
45137;DHT22;30894;51.740;19.498;2023-02-18T00:25:05;6.90;99.90
45137;DHT22;30894;51.740;19.498;2023-02-18T00:27:31;6.80;99.90
45137;DHT22;30894;51.740;19.498;2023-02-18T00:29:59;6.80;99.90
45137;DHT22;30894;51.740;19.498;2023-02-18T00:32:25;6.80;99.90
45137;DHT22;30894;51.740;19.498;2023-02-18T00:34:51;6.70;99.90
45137;DHT22;30894;51.740;19.498;2023-02-18T00:37:18;6.70;99.90
45137;DHT22;30894;51.740;19.498;2023-02-18T00:39:44;6.60;99.90
45137;DHT22;30894;51.740;19.498;2023-02-18T00:42:10;6.60;99.90
45137;DHT22;30894;51.740;19.498;2023-02-18T00:44:36;6.70;99.90
45137;DHT22;30894;51.740;19.498;2023-02-18T00:47:02;6.70;99.90
45137;DHT22;30894;51.740;19.498;2023-02-18T00:49:28;6.60;99.90
45137;DHT22;30894;51.740;19.498;2023-02-18T00:51:54;6.50;99.90
45137;DHT22;30894;51.740;19.498;2023-02-18T00:54:20;6.50;99.90
45137;DHT22;30894;51.740;19.498;2023-02-18T00:56:46;6.50;99.90
45137;DHT22;30894;51.740;19.498;2023-02-18T00:59:12;6.40;99.90
45137;DHT22;30894;51.740;19.498;2023-02-18T01:01:39;6.40;99.90
45137;DHT22;30894;51.740;19.498;2023-02-18T01:04:05;6.40;99.90
45137;DHT22;30894;51.740;19.498;2023-02-18T01:06:40;6.30;99.90
45137;DHT22;30894;51.740;19.498;2023-02-18T01:09:06;6.30;99.90
45137;DHT22;30894;51.740;19.498;2023-02-18T01:11:35;6.30;99.90
45137;DHT22;30894;51.740;19.498;2023-02-18T01:14:01;6.30;99.90
45137;DHT22;30894;51.740;19.498;2023-02-18T01:16:27;6.30;99.90
45137;DHT22;30894;51.740;19.498;2023-02-18T01:18:53;6.20;99.90
45137;DHT22;30894;51.740;19.498;2023-02-18T01:21:20;6.20;99.90
45137;DHT22;30894;51.740;19.498;2023-02-18T01:23:46;6.10;99.90
45137;DHT22;30894;51.740;19.498;2023-02-18T01:26:12;6.10;99.90
45137;DHT22;30894;51.740;19.498;2023-02-18T01:28:41;6.00;99.90
45137;DHT22;30894;51.740;19.498;2023-02-18T01:31:09;6.00;99.90
45137;DHT22;30894;51.740;19.498;2023-02-18T01:33:36;5.90;99.90
45137;DHT22;30894;51.740;19.498;2023-02-18T01:36:03;5.90;99.90
45137;DHT22;30894;51.740;19.498;2023-02-18T01:38:29;5.90;99.90
45137;DHT22;30894;51.740;19.498;2023-02-18T01:40:56;5.80;99.90
45137;DHT22;30894;51.740;19.498;2023-02-18T01:43:22;5.80;99.90
45137;DHT22;30894;51.740;19.498;2023-02-18T01:45:51;5.80;99.90
45137;DHT22;30894;51.740;19.498;2023-02-18T01:48:24;5.80;99.90
45137;DHT22;30894;51.740;19.498;2023-02-18T01:51:00;5.70;99.90
45137;DHT22;30894;51.740;19.498;2023-02-18T01:53:35;5.70;99.90
45137;DHT22;30894;51.740;19.498;2023-02-18T01:56:06;5.70;99.90
45137;DHT22;30894;51.740;19.498;2023-02-18T01:58:37;5.60;99.90
45137;DHT22;30894;51.740;19.498;2023-02-18T02:01:05;5.60;99.90
45137;DHT22;30894;51.740;19.498;2023-02-18T02:03:31;5.50;99.90
45137;DHT22;30894;51.740;19.498;2023-02-18T02:05:57;5.50;99.90
45137;DHT22;30894;51.740;19.498;2023-02-18T02:08:23;5.40;99.90
45137;DHT22;30894;51.740;19.498;2023-02-18T02:14:02;5.40;99.90
45137;DHT22;30894;51.740;19.498;2023-02-18T02:16:55;5.40;99.90
45137;DHT22;30894;51.740;19.498;2023-02-18T02:31:58;5.30;99.90
45137;DHT22;30894;51.740;19.498;2023-02-18T02:40:37;5.30;99.90
45137;DHT22;30894;51.740;19.498;2023-02-18T02:43:32;5.20;99.90
45137;DHT22;30894;51.740;19.498;2023-02-18T02:46:11;5.20;99.90
45137;DHT22;30894;51.740;19.498;2023-02-18T02:48:56;5.20;99.90
45137;DHT22;30894;51.740;19.498;2023-02-18T02:51:37;5.20;99.90
45137;DHT22;30894;51.740;19.498;2023-02-18T02:54:14;5.20;99.90
45137;DHT22;30894;51.740;19.498;2023-02-18T02:56:42;5.20;99.90
45137;DHT22;30894;51.740;19.498;2023-02-18T02:59:21;5.20;99.90
45137;DHT22;30894;51.740;19.498;2023-02-18T03:10:50;5.00;99.90
45137;DHT22;30894;51.740;19.498;2023-02-18T03:13:31;5.10;99.90
45137;DHT22;30894;51.740;19.498;2023-02-18T03:16:23;5.10;99.90
45137;DHT22;30894;51.740;19.498;2023-02-18T03:21:34;4.90;99.90
45137;DHT22;30894;51.740;19.498;2023-02-18T03:24:46;4.90;99.90
45137;DHT22;30894;51.740;19.498;2023-02-18T03:27:20;4.90;99.90
45137;DHT22;30894;51.740;19.498;2023-02-18T03:29:54;4.80;99.90
45137;DHT22;30894;51.740;19.498;2023-02-18T03:32:23;4.80;99.90
45137;DHT22;30894;51.740;19.498;2023-02-18T03:34:54;4.80;99.90
45137;DHT22;30894;51.740;19.498;2023-02-18T03:37:22;4.70;99.90
45137;DHT22;30894;51.740;19.498;2023-02-18T03:39:53;4.70;99.90
45137;DHT22;30894;51.740;19.498;2023-02-18T03:42:27;4.70;99.90
45137;DHT22;30894;51.740;19.498;2023-02-18T03:44:56;4.70;99.90
45137;DHT22;30894;51.740;19.498;2023-02-18T03:47:23;4.60;99.90
45137;DHT22;30894;51.740;19.498;2023-02-18T03:49:49;4.60;99.90
45137;DHT22;30894;51.740;19.498;2023-02-18T03:52:15;4.50;99.90
45137;DHT22;30894;51.740;19.498;2023-02-18T03:54:42;4.40;99.90
45137;DHT22;30894;51.740;19.498;2023-02-18T03:57:11;4.40;99.90
45137;DHT22;30894;51.740;19.498;2023-02-18T03:59:37;4.40;99.90
45137;DHT22;30894;51.740;19.498;2023-02-18T04:02:03;4.30;99.90
45137;DHT22;30894;51.740;19.498;2023-02-18T04:04:29;4.30;99.90
45137;DHT22;30894;51.740;19.498;2023-02-18T04:06:55;4.30;99.90
45137;DHT22;30894;51.740;19.498;2023-02-18T04:09:21;4.40;99.90
45137;DHT22;30894;51.740;19.498;2023-02-18T04:11:48;4.40;99.90
45137;DHT22;30894;51.740;19.498;2023-02-18T04:14:14;4.40;99.90
45137;DHT22;30894;51.740;19.498;2023-02-18T04:16:41;4.40;99.90
45137;DHT22;30894;51.740;19.498;2023-02-18T04:19:07;4.50;99.90
45137;DHT22;30894;51.740;19.498;2023-02-18T04:21:33;4.50;99.90
45137;DHT22;30894;51.740;19.498;2023-02-18T04:24:00;4.50;99.90
45137;DHT22;30894;51.740;19.498;2023-02-18T04:26:26;4.50;99.90
45137;DHT22;30894;51.740;19.498;2023-02-18T04:28:52;4.60;99.90
45137;DHT22;30894;51.740;19.498;2023-02-18T04:31:18;4.70;99.90
45137;DHT22;30894;51.740;19.498;2023-02-18T04:33:45;4.80;99.90
45137;DHT22;30894;51.740;19.498;2023-02-18T04:36:11;4.70;99.90
45137;DHT22;30894;51.740;19.498;2023-02-18T04:38:37;4.80;99.90
45137;DHT22;30894;51.740;19.498;2023-02-18T04:41:03;4.80;99.90
45137;DHT22;30894;51.740;19.498;2023-02-18T04:43:29;4.80;99.90
45137;DHT22;30894;51.740;19.498;2023-02-18T04:45:55;4.80;99.90
45137;DHT22;30894;51.740;19.498;2023-02-18T04:48:21;4.80;99.90
45137;DHT22;30894;51.740;19.498;2023-02-18T04:50:47;4.70;99.90
45137;DHT22;30894;51.740;19.498;2023-02-18T04:53:14;4.60;99.90
45137;DHT22;30894;51.740;19.498;2023-02-18T04:55:40;4.60;99.90
45137;DHT22;30894;51.740;19.498;2023-02-18T04:58:06;4.60;99.90
45137;DHT22;30894;51.740;19.498;2023-02-18T05:00:32;4.70;99.90
45137;DHT22;30894;51.740;19.498;2023-02-18T05:02:58;4.70;99.90
45137;DHT22;30894;51.740;19.498;2023-02-18T05:05:24;4.70;99.90
45137;DHT22;30894;51.740;19.498;2023-02-18T05:07:51;4.70;99.90
45137;DHT22;30894;51.740;19.498;2023-02-18T05:10:17;4.70;99.90
45137;DHT22;30894;51.740;19.498;2023-02-18T05:12:44;4.70;99.90
45137;DHT22;30894;51.740;19.498;2023-02-18T05:15:10;4.60;99.90
45137;DHT22;30894;51.740;19.498;2023-02-18T05:17:36;4.60;99.90
45137;DHT22;30894;51.740;19.498;2023-02-18T05:20:02;4.50;99.90
45137;DHT22;30894;51.740;19.498;2023-02-18T05:22:29;4.60;99.90
45137;DHT22;30894;51.740;19.498;2023-02-18T05:24:55;4.60;99.90
45137;DHT22;30894;51.740;19.498;2023-02-18T05:27:21;4.60;99.90
45137;DHT22;30894;51.740;19.498;2023-02-18T05:29:47;4.60;99.90
45137;DHT22;30894;51.740;19.498;2023-02-18T05:32:13;4.60;99.90
45137;DHT22;30894;51.740;19.498;2023-02-18T05:34:40;4.50;99.90
45137;DHT22;30894;51.740;19.498;2023-02-18T05:37:07;4.50;99.90
45137;DHT22;30894;51.740;19.498;2023-02-18T05:39:33;4.50;99.90
45137;DHT22;30894;51.740;19.498;2023-02-18T05:41:59;4.40;99.90
45137;DHT22;30894;51.740;19.498;2023-02-18T05:44:25;4.40;99.90
45137;DHT22;30894;51.740;19.498;2023-02-18T05:47:00;4.30;99.90
45137;DHT22;30894;51.740;19.498;2023-02-18T05:49:30;4.40;99.90
45137;DHT22;30894;51.740;19.498;2023-02-18T05:52:00;4.30;99.90
45137;DHT22;30894;51.740;19.498;2023-02-18T05:54:27;4.30;99.90
45137;DHT22;30894;51.740;19.498;2023-02-18T05:56:56;4.30;99.90
45137;DHT22;30894;51.740;19.498;2023-02-18T05:59:23;4.30;99.90
45137;DHT22;30894;51.740;19.498;2023-02-18T06:01:50;4.20;99.90
45137;DHT22;30894;51.740;19.498;2023-02-18T06:04:16;4.20;99.90
45137;DHT22;30894;51.740;19.498;2023-02-18T06:06:43;4.00;99.90
45137;DHT22;30894;51.740;19.498;2023-02-18T06:09:10;4.10;99.90
45137;DHT22;30894;51.740;19.498;2023-02-18T06:11:36;4.10;99.90
45137;DHT22;30894;51.740;19.498;2023-02-18T06:14:03;4.10;99.90
45137;DHT22;30894;51.740;19.498;2023-02-18T06:16:30;4.10;99.90
45137;DHT22;30894;51.740;19.498;2023-02-18T06:18:56;4.10;99.90
45137;DHT22;30894;51.740;19.498;2023-02-18T06:21:23;4.10;99.90
45137;DHT22;30894;51.740;19.498;2023-02-18T06:23:50;4.10;99.90
45137;DHT22;30894;51.740;19.498;2023-02-18T06:26:17;4.10;99.90
45137;DHT22;30894;51.740;19.498;2023-02-18T06:28:43;4.10;99.90
45137;DHT22;30894;51.740;19.498;2023-02-18T06:31:09;4.10;99.90
45137;DHT22;30894;51.740;19.498;2023-02-18T06:33:35;4.10;99.90
45137;DHT22;30894;51.740;19.498;2023-02-18T06:36:07;4.10;99.90
45137;DHT22;30894;51.740;19.498;2023-02-18T06:38:37;4.20;99.90
45137;DHT22;30894;51.740;19.498;2023-02-18T06:41:09;4.30;99.90
45137;DHT22;30894;51.740;19.498;2023-02-18T06:43:36;4.40;99.90
45137;DHT22;30894;51.740;19.498;2023-02-18T06:46:10;4.60;99.90
45137;DHT22;30894;51.740;19.498;2023-02-18T06:48:43;4.70;99.90
45137;DHT22;30894;51.740;19.498;2023-02-18T06:51:10;4.80;99.90
45137;DHT22;30894;51.740;19.498;2023-02-18T06:53:46;4.90;99.90
45137;DHT22;30894;51.740;19.498;2023-02-18T06:56:15;5.00;99.90
45137;DHT22;30894;51.740;19.498;2023-02-18T06:58:44;5.00;99.90
45137;DHT22;30894;51.740;19.498;2023-02-18T07:01:16;5.00;99.90
45137;DHT22;30894;51.740;19.498;2023-02-18T07:03:51;5.20;99.90
45137;DHT22;30894;51.740;19.498;2023-02-18T07:06:17;5.30;99.90
45137;DHT22;30894;51.740;19.498;2023-02-18T07:08:58;5.40;99.90
45137;DHT22;30894;51.740;19.498;2023-02-18T07:11:43;5.60;99.90
45137;DHT22;30894;51.740;19.498;2023-02-18T07:14:12;5.80;99.90
45137;DHT22;30894;51.740;19.498;2023-02-18T07:16:41;5.90;99.90
45137;DHT22;30894;51.740;19.498;2023-02-18T07:19:13;6.20;99.90
45137;DHT22;30894;51.740;19.498;2023-02-18T07:22:00;6.30;99.90
45137;DHT22;30894;51.740;19.498;2023-02-18T07:24:42;6.30;99.90
45137;DHT22;30894;51.740;19.498;2023-02-18T07:27:55;6.30;99.50
45137;DHT22;30894;51.740;19.498;2023-02-18T07:31:00;6.20;99.50
45137;DHT22;30894;51.740;19.498;2023-02-18T07:33:39;6.10;99.30
45137;DHT22;30894;51.740;19.498;2023-02-18T07:36:16;6.10;99.40
45137;DHT22;30894;51.740;19.498;2023-02-18T07:38:58;6.10;99.30
45137;DHT22;30894;51.740;19.498;2023-02-18T07:41:30;6.00;99.30
45137;DHT22;30894;51.740;19.498;2023-02-18T07:44:03;6.00;99.10
45137;DHT22;30894;51.740;19.498;2023-02-18T07:46:48;6.10;99.10
45137;DHT22;30894;51.740;19.498;2023-02-18T07:49:37;6.10;99.00
45137;DHT22;30894;51.740;19.498;2023-02-18T07:52:22;6.10;98.80
45137;DHT22;30894;51.740;19.498;2023-02-18T07:54:50;6.10;98.80
45137;DHT22;30894;51.740;19.498;2023-02-18T07:57:24;6.40;98.60
45137;DHT22;30894;51.740;19.498;2023-02-18T08:00:15;6.70;98.00
45137;DHT22;30894;51.740;19.498;2023-02-18T08:02:59;7.20;96.70
45137;DHT22;30894;51.740;19.498;2023-02-18T08:05:27;7.40;95.90
45137;DHT22;30894;51.740;19.498;2023-02-18T08:08:01;7.60;95.20
45137;DHT22;30894;51.740;19.498;2023-02-18T08:10:33;7.60;94.60
45137;DHT22;30894;51.740;19.498;2023-02-18T08:12:59;7.50;94.60
45137;DHT22;30894;51.740;19.498;2023-02-18T08:15:25;7.40;94.50
45137;DHT22;30894;51.740;19.498;2023-02-18T08:17:59;7.30;95.00
45137;DHT22;30894;51.740;19.498;2023-02-18T08:20:43;7.10;94.90
45137;DHT22;30894;51.740;19.498;2023-02-18T08:23:25;7.10;95.30
45137;DHT22;30894;51.740;19.498;2023-02-18T08:25:53;7.60;94.50
45137;DHT22;30894;51.740;19.498;2023-02-18T08:28:23;7.80;93.70
45137;DHT22;30894;51.740;19.498;2023-02-18T08:30:58;7.90;93.30
45137;DHT22;30894;51.740;19.498;2023-02-18T08:33:25;8.00;92.80
45137;DHT22;30894;51.740;19.498;2023-02-18T08:36:06;8.10;92.40
45137;DHT22;30894;51.740;19.498;2023-02-18T08:38:43;8.10;92.10
45137;DHT22;30894;51.740;19.498;2023-02-18T08:41:16;8.10;92.10
45137;DHT22;30894;51.740;19.498;2023-02-18T08:43:47;8.10;91.80
45137;DHT22;30894;51.740;19.498;2023-02-18T08:46:21;8.00;91.90
45137;DHT22;30894;51.740;19.498;2023-02-18T08:48:49;7.90;92.00
45137;DHT22;30894;51.740;19.498;2023-02-18T08:51:21;7.70;92.00
45137;DHT22;30894;51.740;19.498;2023-02-18T08:53:52;7.60;92.30
45137;DHT22;30894;51.740;19.498;2023-02-18T08:56:22;7.40;92.70
45137;DHT22;30894;51.740;19.498;2023-02-18T08:58:54;7.30;92.90
45137;DHT22;30894;51.740;19.498;2023-02-18T09:01:21;7.20;93.00
45137;DHT22;30894;51.740;19.498;2023-02-18T09:03:48;7.20;93.30
45137;DHT22;30894;51.740;19.498;2023-02-18T09:06:15;7.10;93.20
45137;DHT22;30894;51.740;19.498;2023-02-18T09:08:42;7.10;93.60
45137;DHT22;30894;51.740;19.498;2023-02-18T09:11:13;7.00;93.40
45137;DHT22;30894;51.740;19.498;2023-02-18T09:13:40;7.00;93.70
45137;DHT22;30894;51.740;19.498;2023-02-18T09:16:17;6.90;94.10
45137;DHT22;30894;51.740;19.498;2023-02-18T09:18:48;6.80;93.90
45137;DHT22;30894;51.740;19.498;2023-02-18T09:21:21;6.80;93.70
45137;DHT22;30894;51.740;19.498;2023-02-18T09:23:53;6.70;94.00
45137;DHT22;30894;51.740;19.498;2023-02-18T09:26:21;6.60;94.10
45137;DHT22;30894;51.740;19.498;2023-02-18T09:28:58;6.60;94.20
45137;DHT22;30894;51.740;19.498;2023-02-18T09:31:28;6.60;94.30
45137;DHT22;30894;51.740;19.498;2023-02-18T09:33:59;6.60;94.50
45137;DHT22;30894;51.740;19.498;2023-02-18T09:36:32;6.60;94.40
45137;DHT22;30894;51.740;19.498;2023-02-18T09:38:59;6.50;94.40
45137;DHT22;30894;51.740;19.498;2023-02-18T09:42:10;6.50;94.60
45137;DHT22;30894;51.740;19.498;2023-02-18T09:44:51;6.50;94.50
45137;DHT22;30894;51.740;19.498;2023-02-18T09:47:39;6.50;94.60
45137;DHT22;30894;51.740;19.498;2023-02-18T09:50:27;6.50;94.60
45137;DHT22;30894;51.740;19.498;2023-02-18T09:52:59;6.50;94.40
45137;DHT22;30894;51.740;19.498;2023-02-18T09:55:31;6.50;94.30
45137;DHT22;30894;51.740;19.498;2023-02-18T09:58:12;6.50;94.50
45137;DHT22;30894;51.740;19.498;2023-02-18T10:00:56;6.50;94.40
45137;DHT22;30894;51.740;19.498;2023-02-18T10:03:31;6.50;94.30
45137;DHT22;30894;51.740;19.498;2023-02-18T10:06:09;6.50;94.40
45137;DHT22;30894;51.740;19.498;2023-02-18T10:08:52;6.60;94.40
45137;DHT22;30894;51.740;19.498;2023-02-18T10:11:54;6.50;94.30
45137;DHT22;30894;51.740;19.498;2023-02-18T10:14:30;6.50;94.20
45137;DHT22;30894;51.740;19.498;2023-02-18T10:16:59;6.60;94.20
45137;DHT22;30894;51.740;19.498;2023-02-18T10:19:33;6.70;94.20
45137;DHT22;30894;51.740;19.498;2023-02-18T10:22:11;6.80;94.50
45137;DHT22;30894;51.740;19.498;2023-02-18T10:24:58;6.90;93.60
45137;DHT22;30894;51.740;19.498;2023-02-18T10:27:36;7.00;93.20
45137;DHT22;30894;51.740;19.498;2023-02-18T10:30:39;7.20;93.00
45137;DHT22;30894;51.740;19.498;2023-02-18T10:34:06;7.60;92.40
45137;DHT22;30894;51.740;19.498;2023-02-18T10:50:54;8.40;90.10
45137;DHT22;30894;51.740;19.498;2023-02-18T10:54:04;8.50;90.10
45137;DHT22;30894;51.740;19.498;2023-02-18T10:58:10;8.50;90.00
45137;DHT22;30894;51.740;19.498;2023-02-18T11:01:29;8.70;90.00
45137;DHT22;30894;51.740;19.498;2023-02-18T11:04:17;8.60;90.20
45137;DHT22;30894;51.740;19.498;2023-02-18T11:07:20;8.70;90.20
45137;DHT22;30894;51.740;19.498;2023-02-18T11:13:01;8.80;89.60
45137;DHT22;30894;51.740;19.498;2023-02-18T11:15:29;8.80;89.50
45137;DHT22;30894;51.740;19.498;2023-02-18T11:18:36;8.80;89.30
45137;DHT22;30894;51.740;19.498;2023-02-18T11:21:34;8.80;89.20
45137;DHT22;30894;51.740;19.498;2023-02-18T11:24:19;8.80;89.00
45137;DHT22;30894;51.740;19.498;2023-02-18T11:26:45;8.80;88.90
45137;DHT22;30894;51.740;19.498;2023-02-18T11:29:19;8.80;88.40
45137;DHT22;30894;51.740;19.498;2023-02-18T11:31:50;8.80;87.80
45137;DHT22;30894;51.740;19.498;2023-02-18T11:34:26;8.80;87.90
45137;DHT22;30894;51.740;19.498;2023-02-18T11:37:20;8.90;87.50
45137;DHT22;30894;51.740;19.498;2023-02-18T11:39:53;9.20;86.40
45137;DHT22;30894;51.740;19.498;2023-02-18T11:42:29;9.40;85.50
45137;DHT22;30894;51.740;19.498;2023-02-18T11:45:02;9.60;84.50
45137;DHT22;30894;51.740;19.498;2023-02-18T11:47:57;9.70;84.20
45137;DHT22;30894;51.740;19.498;2023-02-18T11:50:34;9.80;83.60
45137;DHT22;30894;51.740;19.498;2023-02-18T11:53:31;9.70;82.90
45137;DHT22;30894;51.740;19.498;2023-02-18T11:56:16;9.60;82.80
45137;DHT22;30894;51.740;19.498;2023-02-18T11:58:50;9.60;83.00
45137;DHT22;30894;51.740;19.498;2023-02-18T12:04:44;9.80;83.20
45137;DHT22;30894;51.740;19.498;2023-02-18T12:07:58;9.90;83.10
45137;DHT22;30894;51.740;19.498;2023-02-18T12:13:25;9.80;82.90
45137;DHT22;30894;51.740;19.498;2023-02-18T12:19:42;9.50;82.80
45137;DHT22;30894;51.740;19.498;2023-02-18T12:58:22;8.30;85.60
45137;DHT22;30894;51.740;19.498;2023-02-18T13:01:41;8.30;85.60
45137;DHT22;30894;51.740;19.498;2023-02-18T13:04:53;8.40;85.60
45137;DHT22;30894;51.740;19.498;2023-02-18T13:16:51;8.70;84.00
45137;DHT22;30894;51.740;19.498;2023-02-18T13:19:23;8.60;83.70
45137;DHT22;30894;51.740;19.498;2023-02-18T13:21:56;8.60;84.00
45137;DHT22;30894;51.740;19.498;2023-02-18T13:24:39;8.60;84.10
45137;DHT22;30894;51.740;19.498;2023-02-18T13:38:47;8.20;84.70
45137;DHT22;30894;51.740;19.498;2023-02-18T13:41:28;8.00;85.00
45137;DHT22;30894;51.740;19.498;2023-02-18T13:44:15;7.90;85.30
45137;DHT22;30894;51.740;19.498;2023-02-18T13:47:05;7.80;85.80
45137;DHT22;30894;51.740;19.498;2023-02-18T13:49:58;7.50;86.50
45137;DHT22;30894;51.740;19.498;2023-02-18T13:53:22;7.30;87.40
45137;DHT22;30894;51.740;19.498;2023-02-18T13:56:20;7.20;88.40
45137;DHT22;30894;51.740;19.498;2023-02-18T13:59:58;7.10;88.70
45137;DHT22;30894;51.740;19.498;2023-02-18T14:02:59;7.10;89.20
45137;DHT22;30894;51.740;19.498;2023-02-18T14:05:40;6.90;89.60
45137;DHT22;30894;51.740;19.498;2023-02-18T14:08:15;6.60;90.10
45137;DHT22;30894;51.740;19.498;2023-02-18T14:13:42;5.90;91.70
45137;DHT22;30894;51.740;19.498;2023-02-18T14:19:40;5.30;93.30
45137;DHT22;30894;51.740;19.498;2023-02-18T14:28:43;4.80;95.40
45137;DHT22;30894;51.740;19.498;2023-02-18T14:31:29;4.60;95.80
45137;DHT22;30894;51.740;19.498;2023-02-18T14:40:20;4.30;97.00
45137;DHT22;30894;51.740;19.498;2023-02-18T14:43:44;4.10;97.40
45137;DHT22;30894;51.740;19.498;2023-02-18T14:51:32;3.80;98.30
45137;DHT22;30894;51.740;19.498;2023-02-18T14:54:09;3.80;98.60
45137;DHT22;30894;51.740;19.498;2023-02-18T14:56:51;3.70;98.90
45137;DHT22;30894;51.740;19.498;2023-02-18T14:59:19;3.60;99.20
45137;DHT22;30894;51.740;19.498;2023-02-18T15:01:46;3.50;99.40
45137;DHT22;30894;51.740;19.498;2023-02-18T15:04:14;3.50;99.70
45137;DHT22;30894;51.740;19.498;2023-02-18T15:06:41;3.50;99.90
45137;DHT22;30894;51.740;19.498;2023-02-18T15:09:21;3.40;99.90
45137;DHT22;30894;51.740;19.498;2023-02-18T15:11:58;3.40;99.90
45137;DHT22;30894;51.740;19.498;2023-02-18T15:14:37;3.30;99.90
45137;DHT22;30894;51.740;19.498;2023-02-18T15:17:07;3.30;99.90
45137;DHT22;30894;51.740;19.498;2023-02-18T15:19:50;3.30;99.90
45137;DHT22;30894;51.740;19.498;2023-02-18T15:22:23;3.30;99.90
45137;DHT22;30894;51.740;19.498;2023-02-18T15:24:52;3.30;99.90
45137;DHT22;30894;51.740;19.498;2023-02-18T15:27:23;3.30;99.90
45137;DHT22;30894;51.740;19.498;2023-02-18T15:29:56;3.30;99.90
45137;DHT22;30894;51.740;19.498;2023-02-18T15:32:29;3.20;99.90
45137;DHT22;30894;51.740;19.498;2023-02-18T15:34:59;3.20;99.90
45137;DHT22;30894;51.740;19.498;2023-02-18T15:37:27;3.20;99.90
45137;DHT22;30894;51.740;19.498;2023-02-18T15:39:55;3.20;99.90
45137;DHT22;30894;51.740;19.498;2023-02-18T15:42:26;3.10;99.90
45137;DHT22;30894;51.740;19.498;2023-02-18T15:44:57;3.10;99.90
45137;DHT22;30894;51.740;19.498;2023-02-18T15:47:29;3.10;99.90
45137;DHT22;30894;51.740;19.498;2023-02-18T15:49:59;3.00;99.90
45137;DHT22;30894;51.740;19.498;2023-02-18T15:52:31;3.00;99.90
45137;DHT22;30894;51.740;19.498;2023-02-18T15:55:05;3.00;99.90
45137;DHT22;30894;51.740;19.498;2023-02-18T15:57:37;3.00;99.90
45137;DHT22;30894;51.740;19.498;2023-02-18T16:00:15;2.90;99.90
45137;DHT22;30894;51.740;19.498;2023-02-18T16:02:53;3.00;99.90
45137;DHT22;30894;51.740;19.498;2023-02-18T16:05:27;2.90;99.90
45137;DHT22;30894;51.740;19.498;2023-02-18T16:08:05;2.90;99.90
45137;DHT22;30894;51.740;19.498;2023-02-18T16:10:59;2.90;99.90
45137;DHT22;30894;51.740;19.498;2023-02-18T16:13:43;2.90;99.90
45137;DHT22;30894;51.740;19.498;2023-02-18T16:16:23;2.90;99.90
45137;DHT22;30894;51.740;19.498;2023-02-18T16:18:56;2.80;99.90
45137;DHT22;30894;51.740;19.498;2023-02-18T16:21:31;2.80;99.90
45137;DHT22;30894;51.740;19.498;2023-02-18T16:24:19;2.90;99.90
45137;DHT22;30894;51.740;19.498;2023-02-18T16:26:50;2.90;99.90
45137;DHT22;30894;51.740;19.498;2023-02-18T16:29:40;2.90;99.90
45137;DHT22;30894;51.740;19.498;2023-02-18T16:32:07;2.90;99.90
45137;DHT22;30894;51.740;19.498;2023-02-18T16:34:35;2.90;99.90
45137;DHT22;30894;51.740;19.498;2023-02-18T16:37:03;3.00;99.90
45137;DHT22;30894;51.740;19.498;2023-02-18T16:39:49;3.00;99.90
45137;DHT22;30894;51.740;19.498;2023-02-18T16:42:20;3.00;99.90
45137;DHT22;30894;51.740;19.498;2023-02-18T16:44:47;3.10;99.90
45137;DHT22;30894;51.740;19.498;2023-02-18T16:47:16;3.10;99.90
45137;DHT22;30894;51.740;19.498;2023-02-18T16:49:45;3.10;99.90
45137;DHT22;30894;51.740;19.498;2023-02-18T16:52:14;3.10;99.90
45137;DHT22;30894;51.740;19.498;2023-02-18T16:54:42;3.10;99.90
45137;DHT22;30894;51.740;19.498;2023-02-18T16:57:11;3.20;99.90
45137;DHT22;30894;51.740;19.498;2023-02-18T16:59:37;3.20;99.90
45137;DHT22;30894;51.740;19.498;2023-02-18T17:02:07;3.20;99.90
45137;DHT22;30894;51.740;19.498;2023-02-18T17:04:40;3.20;99.90
45137;DHT22;30894;51.740;19.498;2023-02-18T17:07:10;3.20;99.90
45137;DHT22;30894;51.740;19.498;2023-02-18T17:09:36;3.20;99.90
45137;DHT22;30894;51.740;19.498;2023-02-18T17:12:02;3.20;99.90
45137;DHT22;30894;51.740;19.498;2023-02-18T17:14:29;3.20;99.90
45137;DHT22;30894;51.740;19.498;2023-02-18T17:16:56;3.10;99.90
45137;DHT22;30894;51.740;19.498;2023-02-18T17:19:22;3.10;99.90
45137;DHT22;30894;51.740;19.498;2023-02-18T17:21:49;3.00;99.90
45137;DHT22;30894;51.740;19.498;2023-02-18T17:24:17;3.00;99.90
45137;DHT22;30894;51.740;19.498;2023-02-18T17:26:44;2.90;99.90
45137;DHT22;30894;51.740;19.498;2023-02-18T17:29:10;2.90;99.90
45137;DHT22;30894;51.740;19.498;2023-02-18T17:31:39;2.90;99.90
45137;DHT22;30894;51.740;19.498;2023-02-18T17:34:23;2.90;99.90
45137;DHT22;30894;51.740;19.498;2023-02-18T17:36:55;2.90;99.90
45137;DHT22;30894;51.740;19.498;2023-02-18T17:39:23;2.90;99.90
45137;DHT22;30894;51.740;19.498;2023-02-18T17:41:50;3.00;99.90
45137;DHT22;30894;51.740;19.498;2023-02-18T17:44:21;3.00;99.90
45137;DHT22;30894;51.740;19.498;2023-02-18T17:46:49;3.00;99.90
45137;DHT22;30894;51.740;19.498;2023-02-18T17:49:21;3.00;99.90
45137;DHT22;30894;51.740;19.498;2023-02-18T17:51:48;3.10;99.90
45137;DHT22;30894;51.740;19.498;2023-02-18T17:54:17;3.10;99.90
45137;DHT22;30894;51.740;19.498;2023-02-18T17:56:45;3.10;99.90
45137;DHT22;30894;51.740;19.498;2023-02-18T17:59:12;3.10;99.90
45137;DHT22;30894;51.740;19.498;2023-02-18T18:01:39;3.10;99.90
45137;DHT22;30894;51.740;19.498;2023-02-18T18:04:14;3.10;99.90
45137;DHT22;30894;51.740;19.498;2023-02-18T18:06:44;3.10;99.90
45137;DHT22;30894;51.740;19.498;2023-02-18T18:09:14;3.10;99.90
45137;DHT22;30894;51.740;19.498;2023-02-18T18:11:40;3.10;99.90
45137;DHT22;30894;51.740;19.498;2023-02-18T18:14:09;3.10;99.90
45137;DHT22;30894;51.740;19.498;2023-02-18T18:16:38;3.00;99.90
45137;DHT22;30894;51.740;19.498;2023-02-18T18:19:04;3.10;99.90
45137;DHT22;30894;51.740;19.498;2023-02-18T18:21:33;3.10;99.90
45137;DHT22;30894;51.740;19.498;2023-02-18T18:24:00;3.10;99.90
45137;DHT22;30894;51.740;19.498;2023-02-18T18:26:27;3.10;99.90
45137;DHT22;30894;51.740;19.498;2023-02-18T18:28:53;3.10;99.90
45137;DHT22;30894;51.740;19.498;2023-02-18T18:31:20;3.10;99.90
45137;DHT22;30894;51.740;19.498;2023-02-18T18:33:48;3.10;99.90